sensor_id;sensor_type;location;lat;lon;timestamp;P1;durP1;ratioP1;P2;durP2;ratioP2
4754;SDS011;2391;47.212;7.542;2023-04-25T00:01:20;3.27;;;1.47;;
4754;SDS011;2391;47.212;7.542;2023-04-25T00:03:47;3.73;;;1.40;;
4754;SDS011;2391;47.212;7.542;2023-04-25T00:06:13;1.87;;;1.37;;
4754;SDS011;2391;47.212;7.542;2023-04-25T00:08:39;4.83;;;1.40;;
4754;SDS011;2391;47.212;7.542;2023-04-25T00:11:05;7.80;;;1.60;;
4754;SDS011;2391;47.212;7.542;2023-04-25T00:13:31;1.93;;;1.10;;
4754;SDS011;2391;47.212;7.542;2023-04-25T00:15:57;3.60;;;1.30;;
4754;SDS011;2391;47.212;7.542;2023-04-25T00:18:23;2.40;;;1.23;;
4754;SDS011;2391;47.212;7.542;2023-04-25T00:20:50;2.53;;;1.20;;
4754;SDS011;2391;47.212;7.542;2023-04-25T00:23:16;6.50;;;1.40;;
4754;SDS011;2391;47.212;7.542;2023-04-25T00:25:45;2.87;;;1.20;;
4754;SDS011;2391;47.212;7.542;2023-04-25T00:28:12;3.80;;;1.97;;
4754;SDS011;2391;47.212;7.542;2023-04-25T00:30:38;3.37;;;1.57;;
4754;SDS011;2391;47.212;7.542;2023-04-25T00:33:05;2.73;;;1.10;;
4754;SDS011;2391;47.212;7.542;2023-04-25T00:35:31;3.00;;;1.30;;
4754;SDS011;2391;47.212;7.542;2023-04-25T00:37:57;3.93;;;2.10;;
4754;SDS011;2391;47.212;7.542;2023-04-25T00:40:23;4.70;;;1.30;;
4754;SDS011;2391;47.212;7.542;2023-04-25T00:42:49;3.87;;;1.60;;
4754;SDS011;2391;47.212;7.542;2023-04-25T00:45:16;3.10;;;1.30;;
4754;SDS011;2391;47.212;7.542;2023-04-25T00:47:42;2.33;;;1.27;;
4754;SDS011;2391;47.212;7.542;2023-04-25T00:50:09;5.10;;;1.60;;
4754;SDS011;2391;47.212;7.542;2023-04-25T00:52:37;3.10;;;1.20;;
4754;SDS011;2391;47.212;7.542;2023-04-25T00:55:05;5.07;;;1.23;;
4754;SDS011;2391;47.212;7.542;2023-04-25T00:57:32;2.07;;;1.60;;
4754;SDS011;2391;47.212;7.542;2023-04-25T00:59:58;3.93;;;1.10;;
4754;SDS011;2391;47.212;7.542;2023-04-25T01:02:24;4.73;;;1.30;;
4754;SDS011;2391;47.212;7.542;2023-04-25T01:04:51;3.87;;;1.10;;
4754;SDS011;2391;47.212;7.542;2023-04-25T01:07:16;1.00;;;1.00;;
4754;SDS011;2391;47.212;7.542;2023-04-25T01:09:42;2.57;;;1.20;;
4754;SDS011;2391;47.212;7.542;2023-04-25T01:12:08;1.37;;;1.13;;
4754;SDS011;2391;47.212;7.542;2023-04-25T01:14:34;1.47;;;0.90;;
4754;SDS011;2391;47.212;7.542;2023-04-25T01:17:00;5.47;;;1.13;;
4754;SDS011;2391;47.212;7.542;2023-04-25T01:19:26;1.87;;;1.40;;
4754;SDS011;2391;47.212;7.542;2023-04-25T01:21:52;4.33;;;1.20;;
4754;SDS011;2391;47.212;7.542;2023-04-25T01:24:18;1.30;;;1.00;;
4754;SDS011;2391;47.212;7.542;2023-04-25T01:26:44;2.43;;;1.17;;
4754;SDS011;2391;47.212;7.542;2023-04-25T01:29:12;2.87;;;1.23;;
4754;SDS011;2391;47.212;7.542;2023-04-25T01:31:38;2.83;;;1.23;;
4754;SDS011;2391;47.212;7.542;2023-04-25T01:34:03;2.93;;;1.20;;
4754;SDS011;2391;47.212;7.542;2023-04-25T01:36:29;1.00;;;1.00;;
4754;SDS011;2391;47.212;7.542;2023-04-25T01:38:56;3.33;;;1.20;;
4754;SDS011;2391;47.212;7.542;2023-04-25T01:41:22;2.60;;;1.30;;
4754;SDS011;2391;47.212;7.542;2023-04-25T01:43:48;1.33;;;1.07;;
4754;SDS011;2391;47.212;7.542;2023-04-25T01:46:14;2.40;;;1.10;;
4754;SDS011;2391;47.212;7.542;2023-04-25T01:48:40;1.80;;;1.13;;
4754;SDS011;2391;47.212;7.542;2023-04-25T01:51:06;5.37;;;1.20;;
4754;SDS011;2391;47.212;7.542;2023-04-25T01:53:31;1.40;;;1.20;;
4754;SDS011;2391;47.212;7.542;2023-04-25T01:55:57;3.43;;;1.33;;
4754;SDS011;2391;47.212;7.542;2023-04-25T01:58:23;1.67;;;1.20;;
4754;SDS011;2391;47.212;7.542;2023-04-25T02:00:49;7.50;;;2.40;;
4754;SDS011;2391;47.212;7.542;2023-04-25T02:03:14;1.40;;;1.30;;
4754;SDS011;2391;47.212;7.542;2023-04-25T02:05:40;2.00;;;1.33;;
4754;SDS011;2391;47.212;7.542;2023-04-25T02:08:08;1.43;;;1.33;;
4754;SDS011;2391;47.212;7.542;2023-04-25T02:10:35;6.23;;;1.10;;
4754;SDS011;2391;47.212;7.542;2023-04-25T02:13:01;1.43;;;1.00;;
4754;SDS011;2391;47.212;7.542;2023-04-25T02:15:27;1.57;;;1.17;;
4754;SDS011;2391;47.212;7.542;2023-04-25T02:17:52;3.53;;;1.30;;
4754;SDS011;2391;47.212;7.542;2023-04-25T02:20:20;2.40;;;1.27;;
4754;SDS011;2391;47.212;7.542;2023-04-25T02:22:47;2.20;;;1.10;;
4754;SDS011;2391;47.212;7.542;2023-04-25T02:25:13;1.20;;;1.10;;
4754;SDS011;2391;47.212;7.542;2023-04-25T02:27:38;2.57;;;1.23;;
4754;SDS011;2391;47.212;7.542;2023-04-25T02:30:05;2.63;;;1.33;;
4754;SDS011;2391;47.212;7.542;2023-04-25T02:32:32;2.73;;;1.60;;
4754;SDS011;2391;47.212;7.542;2023-04-25T02:34:59;2.23;;;1.20;;
4754;SDS011;2391;47.212;7.542;2023-04-25T02:37:28;1.33;;;0.93;;
4754;SDS011;2391;47.212;7.542;2023-04-25T02:39:54;1.30;;;1.20;;
4754;SDS011;2391;47.212;7.542;2023-04-25T02:42:19;4.90;;;1.50;;
4754;SDS011;2391;47.212;7.542;2023-04-25T02:44:45;1.37;;;1.20;;
4754;SDS011;2391;47.212;7.542;2023-04-25T02:47:11;2.63;;;1.20;;
4754;SDS011;2391;47.212;7.542;2023-04-25T02:49:36;2.00;;;1.23;;
4754;SDS011;2391;47.212;7.542;2023-04-25T02:52:02;6.60;;;1.47;;
4754;SDS011;2391;47.212;7.542;2023-04-25T02:54:28;1.10;;;1.00;;
4754;SDS011;2391;47.212;7.542;2023-04-25T02:56:53;3.23;;;1.20;;
4754;SDS011;2391;47.212;7.542;2023-04-25T02:59:19;1.70;;;1.20;;
4754;SDS011;2391;47.212;7.542;2023-04-25T03:01:45;3.53;;;1.67;;
4754;SDS011;2391;47.212;7.542;2023-04-25T03:04:11;1.87;;;1.20;;
4754;SDS011;2391;47.212;7.542;2023-04-25T03:06:36;1.40;;;1.20;;
4754;SDS011;2391;47.212;7.542;2023-04-25T03:09:02;2.20;;;1.30;;
4754;SDS011;2391;47.212;7.542;2023-04-25T03:11:31;1.43;;;1.13;;
4754;SDS011;2391;47.212;7.542;2023-04-25T03:13:57;2.03;;;1.67;;
4754;SDS011;2391;47.212;7.542;2023-04-25T03:16:23;3.47;;;1.10;;
4754;SDS011;2391;47.212;7.542;2023-04-25T03:18:49;1.10;;;1.00;;
4754;SDS011;2391;47.212;7.542;2023-04-25T03:21:16;3.53;;;1.47;;
4754;SDS011;2391;47.212;7.542;2023-04-25T03:23:42;7.83;;;1.37;;
4754;SDS011;2391;47.212;7.542;2023-04-25T03:26:08;5.70;;;1.57;;
4754;SDS011;2391;47.212;7.542;2023-04-25T03:28:34;1.40;;;1.30;;
4754;SDS011;2391;47.212;7.542;2023-04-25T03:30:59;1.40;;;1.30;;
4754;SDS011;2391;47.212;7.542;2023-04-25T03:33:25;1.40;;;1.27;;
4754;SDS011;2391;47.212;7.542;2023-04-25T03:35:51;3.10;;;1.33;;
4754;SDS011;2391;47.212;7.542;2023-04-25T03:38:17;2.70;;;1.40;;
4754;SDS011;2391;47.212;7.542;2023-04-25T03:40:42;5.63;;;1.47;;
4754;SDS011;2391;47.212;7.542;2023-04-25T03:43:08;1.53;;;1.37;;
4754;SDS011;2391;47.212;7.542;2023-04-25T03:45:34;3.60;;;1.20;;
4754;SDS011;2391;47.212;7.542;2023-04-25T03:47:59;1.30;;;1.20;;
4754;SDS011;2391;47.212;7.542;2023-04-25T03:50:25;1.93;;;1.43;;
4754;SDS011;2391;47.212;7.542;2023-04-25T03:52:51;5.30;;;1.40;;
4754;SDS011;2391;47.212;7.542;2023-04-25T03:55:17;2.50;;;1.20;;
4754;SDS011;2391;47.212;7.542;2023-04-25T03:57:44;3.40;;;1.40;;
4754;SDS011;2391;47.212;7.542;2023-04-25T04:00:10;2.07;;;1.80;;
4754;SDS011;2391;47.212;7.542;2023-04-25T04:02:36;8.80;;;1.40;;
4754;SDS011;2391;47.212;7.542;2023-04-25T04:05:03;1.87;;;1.30;;
4754;SDS011;2391;47.212;7.542;2023-04-25T04:07:29;2.63;;;1.13;;
4754;SDS011;2391;47.212;7.542;2023-04-25T04:09:57;2.53;;;1.20;;
4754;SDS011;2391;47.212;7.542;2023-04-25T04:12:23;2.33;;;1.20;;
4754;SDS011;2391;47.212;7.542;2023-04-25T04:14:48;3.53;;;1.10;;
4754;SDS011;2391;47.212;7.542;2023-04-25T04:17:14;4.73;;;1.40;;
4754;SDS011;2391;47.212;7.542;2023-04-25T04:19:40;2.17;;;1.20;;
4754;SDS011;2391;47.212;7.542;2023-04-25T04:22:06;3.50;;;1.40;;
4754;SDS011;2391;47.212;7.542;2023-04-25T04:24:32;5.33;;;1.77;;
4754;SDS011;2391;47.212;7.542;2023-04-25T04:26:58;2.03;;;1.40;;
4754;SDS011;2391;47.212;7.542;2023-04-25T04:29:24;2.60;;;1.67;;
4754;SDS011;2391;47.212;7.542;2023-04-25T04:31:50;2.17;;;1.50;;
4754;SDS011;2391;47.212;7.542;2023-04-25T04:34:18;1.50;;;1.40;;
4754;SDS011;2391;47.212;7.542;2023-04-25T04:36:44;9.50;;;1.57;;
4754;SDS011;2391;47.212;7.542;2023-04-25T04:39:13;1.40;;;1.30;;
4754;SDS011;2391;47.212;7.542;2023-04-25T04:41:39;2.30;;;1.40;;
4754;SDS011;2391;47.212;7.542;2023-04-25T04:44:05;2.70;;;1.40;;
4754;SDS011;2391;47.212;7.542;2023-04-25T04:46:35;1.60;;;1.27;;
4754;SDS011;2391;47.212;7.542;2023-04-25T04:49:05;3.40;;;1.83;;
4754;SDS011;2391;47.212;7.542;2023-04-25T04:51:31;2.70;;;1.70;;
4754;SDS011;2391;47.212;7.542;2023-04-25T04:53:58;2.80;;;1.40;;
4754;SDS011;2391;47.212;7.542;2023-04-25T04:56:26;3.40;;;1.30;;
4754;SDS011;2391;47.212;7.542;2023-04-25T04:58:51;4.17;;;1.77;;
4754;SDS011;2391;47.212;7.542;2023-04-25T05:01:18;3.77;;;1.30;;
4754;SDS011;2391;47.212;7.542;2023-04-25T05:03:47;2.60;;;1.20;;
4754;SDS011;2391;47.212;7.542;2023-04-25T05:06:12;1.43;;;1.27;;
4754;SDS011;2391;47.212;7.542;2023-04-25T05:08:38;3.87;;;1.43;;
4754;SDS011;2391;47.212;7.542;2023-04-25T05:11:04;3.40;;;1.67;;
4754;SDS011;2391;47.212;7.542;2023-04-25T05:13:30;4.27;;;1.53;;
4754;SDS011;2391;47.212;7.542;2023-04-25T05:15:55;4.37;;;1.73;;
4754;SDS011;2391;47.212;7.542;2023-04-25T05:18:21;2.90;;;1.80;;
4754;SDS011;2391;47.212;7.542;2023-04-25T05:20:47;2.63;;;1.20;;
4754;SDS011;2391;47.212;7.542;2023-04-25T05:23:13;4.53;;;1.53;;
4754;SDS011;2391;47.212;7.542;2023-04-25T05:25:38;1.63;;;1.47;;
4754;SDS011;2391;47.212;7.542;2023-04-25T05:28:04;1.50;;;1.40;;
4754;SDS011;2391;47.212;7.542;2023-04-25T05:30:31;2.30;;;1.80;;
4754;SDS011;2391;47.212;7.542;2023-04-25T05:32:57;1.20;;;1.10;;
4754;SDS011;2391;47.212;7.542;2023-04-25T05:35:22;8.00;;;1.40;;
4754;SDS011;2391;47.212;7.542;2023-04-25T05:37:48;2.60;;;1.53;;
4754;SDS011;2391;47.212;7.542;2023-04-25T05:40:14;4.97;;;1.87;;
4754;SDS011;2391;47.212;7.542;2023-04-25T05:42:39;1.37;;;1.20;;
4754;SDS011;2391;47.212;7.542;2023-04-25T05:47:34;1.90;;;1.20;;
4754;SDS011;2391;47.212;7.542;2023-04-25T05:50:00;2.63;;;1.37;;
4754;SDS011;2391;47.212;7.542;2023-04-25T05:52:26;2.60;;;1.43;;
4754;SDS011;2391;47.212;7.542;2023-04-25T05:54:52;2.07;;;1.37;;
4754;SDS011;2391;47.212;7.542;2023-04-25T05:57:19;3.23;;;1.40;;
4754;SDS011;2391;47.212;7.542;2023-04-25T05:59:49;4.90;;;1.60;;
4754;SDS011;2391;47.212;7.542;2023-04-25T06:02:14;2.17;;;1.53;;
4754;SDS011;2391;47.212;7.542;2023-04-25T06:04:41;5.13;;;1.83;;
4754;SDS011;2391;47.212;7.542;2023-04-25T06:07:07;3.80;;;1.47;;
4754;SDS011;2391;47.212;7.542;2023-04-25T06:09:33;1.47;;;1.30;;
4754;SDS011;2391;47.212;7.542;2023-04-25T06:11:59;2.80;;;1.43;;
4754;SDS011;2391;47.212;7.542;2023-04-25T06:14:25;2.80;;;1.30;;
4754;SDS011;2391;47.212;7.542;2023-04-25T06:16:50;3.00;;;1.20;;
4754;SDS011;2391;47.212;7.542;2023-04-25T06:19:16;1.37;;;1.13;;
4754;SDS011;2391;47.212;7.542;2023-04-25T06:21:43;1.60;;;0.80;;
4754;SDS011;2391;47.212;7.542;2023-04-25T06:24:09;2.00;;;1.20;;
4754;SDS011;2391;47.212;7.542;2023-04-25T06:26:35;1.60;;;0.80;;
4754;SDS011;2391;47.212;7.542;2023-04-25T06:29:01;0.80;;;0.70;;
4754;SDS011;2391;47.212;7.542;2023-04-25T06:31:27;0.90;;;0.80;;
4754;SDS011;2391;47.212;7.542;2023-04-25T06:33:54;2.53;;;0.90;;
4754;SDS011;2391;47.212;7.542;2023-04-25T06:36:20;0.80;;;0.80;;
4754;SDS011;2391;47.212;7.542;2023-04-25T06:38:48;0.90;;;0.90;;
4754;SDS011;2391;47.212;7.542;2023-04-25T06:41:14;0.77;;;0.77;;
4754;SDS011;2391;47.212;7.542;2023-04-25T06:43:39;0.80;;;0.80;;
4754;SDS011;2391;47.212;7.542;2023-04-25T06:46:05;1.10;;;1.00;;
4754;SDS011;2391;47.212;7.542;2023-04-25T06:48:31;1.40;;;0.90;;
4754;SDS011;2391;47.212;7.542;2023-04-25T06:50:56;1.00;;;0.97;;
4754;SDS011;2391;47.212;7.542;2023-04-25T06:53:22;0.87;;;0.87;;
4754;SDS011;2391;47.212;7.542;2023-04-25T06:55:48;1.10;;;1.00;;
4754;SDS011;2391;47.212;7.542;2023-04-25T06:58:14;1.13;;;1.07;;
4754;SDS011;2391;47.212;7.542;2023-04-25T07:00:40;1.43;;;1.30;;
4754;SDS011;2391;47.212;7.542;2023-04-25T07:03:05;2.80;;;1.20;;
4754;SDS011;2391;47.212;7.542;2023-04-25T07:05:31;1.03;;;0.93;;
4754;SDS011;2391;47.212;7.542;2023-04-25T07:07:57;1.50;;;1.00;;
4754;SDS011;2391;47.212;7.542;2023-04-25T07:10:23;1.53;;;0.93;;
4754;SDS011;2391;47.212;7.542;2023-04-25T07:12:49;1.10;;;1.00;;
4754;SDS011;2391;47.212;7.542;2023-04-25T07:15:14;1.30;;;1.10;;
4754;SDS011;2391;47.212;7.542;2023-04-25T07:17:40;0.83;;;0.80;;
4754;SDS011;2391;47.212;7.542;2023-04-25T07:20:06;0.90;;;0.90;;
4754;SDS011;2391;47.212;7.542;2023-04-25T07:22:34;1.13;;;0.80;;
4754;SDS011;2391;47.212;7.542;2023-04-25T07:25:00;1.33;;;0.80;;
4754;SDS011;2391;47.212;7.542;2023-04-25T07:27:26;1.07;;;0.80;;
4754;SDS011;2391;47.212;7.542;2023-04-25T07:29:52;2.73;;;0.80;;
4754;SDS011;2391;47.212;7.542;2023-04-25T07:32:18;6.10;;;1.10;;
4754;SDS011;2391;47.212;7.542;2023-04-25T07:34:45;0.80;;;0.80;;
4754;SDS011;2391;47.212;7.542;2023-04-25T07:37:10;2.50;;;1.03;;
4754;SDS011;2391;47.212;7.542;2023-04-25T07:39:36;0.90;;;0.90;;
4754;SDS011;2391;47.212;7.542;2023-04-25T07:42:02;3.37;;;1.10;;
4754;SDS011;2391;47.212;7.542;2023-04-25T07:44:29;2.00;;;0.90;;
4754;SDS011;2391;47.212;7.542;2023-04-25T07:46:55;1.53;;;1.20;;
4754;SDS011;2391;47.212;7.542;2023-04-25T07:49:21;1.50;;;1.00;;
4754;SDS011;2391;47.212;7.542;2023-04-25T07:51:47;1.23;;;1.10;;
4754;SDS011;2391;47.212;7.542;2023-04-25T07:54:13;3.47;;;1.20;;
4754;SDS011;2391;47.212;7.542;2023-04-25T07:56:41;1.27;;;1.23;;
4754;SDS011;2391;47.212;7.542;2023-04-25T07:59:06;1.30;;;1.20;;
4754;SDS011;2391;47.212;7.542;2023-04-25T08:01:33;3.40;;;1.57;;
4754;SDS011;2391;47.212;7.542;2023-04-25T08:04:03;4.27;;;1.67;;
4754;SDS011;2391;47.212;7.542;2023-04-25T08:06:29;10.17;;;1.80;;
4754;SDS011;2391;47.212;7.542;2023-04-25T08:08:55;4.70;;;1.43;;
4754;SDS011;2391;47.212;7.542;2023-04-25T08:11:20;5.77;;;1.30;;
4754;SDS011;2391;47.212;7.542;2023-04-25T08:13:46;2.77;;;1.60;;
4754;SDS011;2391;47.212;7.542;2023-04-25T08:16:12;2.13;;;1.60;;
4754;SDS011;2391;47.212;7.542;2023-04-25T08:18:38;3.70;;;1.90;;
4754;SDS011;2391;47.212;7.542;2023-04-25T08:21:03;1.40;;;1.30;;
4754;SDS011;2391;47.212;7.542;2023-04-25T08:23:29;1.90;;;1.80;;
4754;SDS011;2391;47.212;7.542;2023-04-25T08:25:55;2.03;;;1.60;;
4754;SDS011;2391;47.212;7.542;2023-04-25T08:28:20;2.00;;;1.80;;
4754;SDS011;2391;47.212;7.542;2023-04-25T08:30:53;2.87;;;1.77;;
4754;SDS011;2391;47.212;7.542;2023-04-25T08:33:18;2.00;;;1.50;;
4754;SDS011;2391;47.212;7.542;2023-04-25T08:35:44;2.20;;;2.00;;
4754;SDS011;2391;47.212;7.542;2023-04-25T08:38:10;1.47;;;1.47;;
4754;SDS011;2391;47.212;7.542;2023-04-25T08:40:38;1.90;;;1.40;;
4754;SDS011;2391;47.212;7.542;2023-04-25T08:43:08;1.80;;;1.70;;
4754;SDS011;2391;47.212;7.542;2023-04-25T08:45:35;1.70;;;1.60;;
4754;SDS011;2391;47.212;7.542;2023-04-25T08:48:01;2.20;;;1.33;;
4754;SDS011;2391;47.212;7.542;2023-04-25T08:50:28;1.30;;;1.20;;
4754;SDS011;2391;47.212;7.542;2023-04-25T08:52:55;2.30;;;1.10;;
4754;SDS011;2391;47.212;7.542;2023-04-25T08:55:26;2.10;;;1.20;;
4754;SDS011;2391;47.212;7.542;2023-04-25T08:57:53;1.00;;;1.00;;
4754;SDS011;2391;47.212;7.542;2023-04-25T09:00:21;1.33;;;0.93;;
4754;SDS011;2391;47.212;7.542;2023-04-25T09:02:48;3.20;;;0.90;;
4754;SDS011;2391;47.212;7.542;2023-04-25T09:05:14;1.10;;;0.90;;
4754;SDS011;2391;47.212;7.542;2023-04-25T09:07:40;4.20;;;0.90;;
4754;SDS011;2391;47.212;7.542;2023-04-25T09:10:06;1.20;;;1.10;;
4754;SDS011;2391;47.212;7.542;2023-04-25T09:12:32;0.83;;;0.83;;
4754;SDS011;2391;47.212;7.542;2023-04-25T09:15:02;1.00;;;0.90;;
4754;SDS011;2391;47.212;7.542;2023-04-25T09:17:29;1.00;;;1.00;;
4754;SDS011;2391;47.212;7.542;2023-04-25T09:19:55;0.80;;;0.70;;
4754;SDS011;2391;47.212;7.542;2023-04-25T09:22:34;0.50;;;0.50;;
4754;SDS011;2391;47.212;7.542;2023-04-25T09:25:02;0.50;;;0.50;;
4754;SDS011;2391;47.212;7.542;2023-04-25T09:27:35;0.73;;;0.60;;
4754;SDS011;2391;47.212;7.542;2023-04-25T09:30:02;0.67;;;0.40;;
4754;SDS011;2391;47.212;7.542;2023-04-25T09:32:28;0.40;;;0.40;;
4754;SDS011;2391;47.212;7.542;2023-04-25T09:34:54;1.27;;;0.80;;
4754;SDS011;2391;47.212;7.542;2023-04-25T09:37:28;0.60;;;0.60;;
4754;SDS011;2391;47.212;7.542;2023-04-25T09:39:56;3.70;;;0.73;;
4754;SDS011;2391;47.212;7.542;2023-04-25T09:42:28;1.17;;;0.60;;
4754;SDS011;2391;47.212;7.542;2023-04-25T09:44:57;0.60;;;0.60;;
4754;SDS011;2391;47.212;7.542;2023-04-25T09:47:24;0.60;;;0.60;;
4754;SDS011;2391;47.212;7.542;2023-04-25T09:49:52;0.50;;;0.50;;
4754;SDS011;2391;47.212;7.542;2023-04-25T09:52:19;0.50;;;0.50;;
4754;SDS011;2391;47.212;7.542;2023-04-25T09:54:47;1.17;;;0.60;;
4754;SDS011;2391;47.212;7.542;2023-04-25T09:57:16;0.70;;;0.70;;
4754;SDS011;2391;47.212;7.542;2023-04-25T09:59:44;0.90;;;0.90;;
4754;SDS011;2391;47.212;7.542;2023-04-25T10:02:12;0.90;;;0.57;;
4754;SDS011;2391;47.212;7.542;2023-04-25T10:04:39;1.30;;;0.80;;
4754;SDS011;2391;47.212;7.542;2023-04-25T10:07:06;0.50;;;0.50;;
4754;SDS011;2391;47.212;7.542;2023-04-25T10:09:34;0.50;;;0.50;;
4754;SDS011;2391;47.212;7.542;2023-04-25T10:12:03;0.50;;;0.50;;
4754;SDS011;2391;47.212;7.542;2023-04-25T10:14:29;1.30;;;0.50;;
4754;SDS011;2391;47.212;7.542;2023-04-25T10:16:57;0.50;;;0.50;;
4754;SDS011;2391;47.212;7.542;2023-04-25T10:19:24;1.13;;;0.50;;
4754;SDS011;2391;47.212;7.542;2023-04-25T10:21:58;0.73;;;0.60;;
4754;SDS011;2391;47.212;7.542;2023-04-25T10:24:30;0.93;;;0.60;;
4754;SDS011;2391;47.212;7.542;2023-04-25T10:26:57;0.50;;;0.50;;
4754;SDS011;2391;47.212;7.542;2023-04-25T10:29:26;0.50;;;0.50;;
4754;SDS011;2391;47.212;7.542;2023-04-25T10:31:52;0.70;;;0.50;;
4754;SDS011;2391;47.212;7.542;2023-04-25T10:34:18;0.50;;;0.50;;
4754;SDS011;2391;47.212;7.542;2023-04-25T10:36:51;0.60;;;0.60;;
4754;SDS011;2391;47.212;7.542;2023-04-25T10:39:22;1.27;;;0.60;;
4754;SDS011;2391;47.212;7.542;2023-04-25T10:41:54;0.60;;;0.60;;
4754;SDS011;2391;47.212;7.542;2023-04-25T10:44:21;0.60;;;0.60;;
4754;SDS011;2391;47.212;7.542;2023-04-25T10:46:47;1.20;;;0.77;;
4754;SDS011;2391;47.212;7.542;2023-04-25T10:49:30;1.53;;;0.70;;
4754;SDS011;2391;47.212;7.542;2023-04-25T10:54:48;0.80;;;0.50;;
4754;SDS011;2391;47.212;7.542;2023-04-25T11:02:51;4.30;;;2.50;;
4754;SDS011;2391;47.212;7.542;2023-04-25T11:05:22;0.60;;;0.60;;
4754;SDS011;2391;47.212;7.542;2023-04-25T11:07:52;1.67;;;0.60;;
4754;SDS011;2391;47.212;7.542;2023-04-25T11:10:21;0.80;;;0.73;;
4754;SDS011;2391;47.212;7.542;2023-04-25T11:12:56;0.67;;;0.67;;
4754;SDS011;2391;47.212;7.542;2023-04-25T11:15:22;1.67;;;0.50;;
4754;SDS011;2391;47.212;7.542;2023-04-25T11:17:48;0.50;;;0.40;;
4754;SDS011;2391;47.212;7.542;2023-04-25T11:20:16;0.40;;;0.40;;
4754;SDS011;2391;47.212;7.542;2023-04-25T11:22:41;0.40;;;0.40;;
4754;SDS011;2391;47.212;7.542;2023-04-25T11:25:10;0.93;;;0.50;;
4754;SDS011;2391;47.212;7.542;2023-04-25T11:27:59;0.40;;;0.40;;
4754;SDS011;2391;47.212;7.542;2023-04-25T11:30:20;0.50;;;0.50;;
4754;SDS011;2391;47.212;7.542;2023-04-25T11:32:46;0.50;;;0.50;;
4754;SDS011;2391;47.212;7.542;2023-04-25T11:35:13;0.67;;;0.57;;
4754;SDS011;2391;47.212;7.542;2023-04-25T11:37:39;0.67;;;0.50;;
4754;SDS011;2391;47.212;7.542;2023-04-25T11:40:06;0.40;;;0.40;;
4754;SDS011;2391;47.212;7.542;2023-04-25T11:42:34;0.60;;;0.60;;
4754;SDS011;2391;47.212;7.542;2023-04-25T11:44:59;0.40;;;0.40;;
4754;SDS011;2391;47.212;7.542;2023-04-25T11:47:31;0.50;;;0.50;;
4754;SDS011;2391;47.212;7.542;2023-04-25T11:49:58;0.63;;;0.50;;
4754;SDS011;2391;47.212;7.542;2023-04-25T11:55:06;0.60;;;0.50;;
4754;SDS011;2391;47.212;7.542;2023-04-25T11:57:34;0.50;;;0.50;;
4754;SDS011;2391;47.212;7.542;2023-04-25T12:02:36;0.50;;;0.50;;
4754;SDS011;2391;47.212;7.542;2023-04-25T12:05:06;1.23;;;0.60;;
4754;SDS011;2391;47.212;7.542;2023-04-25T12:07:34;2.63;;;0.70;;
4754;SDS011;2391;47.212;7.542;2023-04-25T12:10:03;0.70;;;0.60;;
4754;SDS011;2391;47.212;7.542;2023-04-25T12:12:33;1.83;;;0.80;;
4754;SDS011;2391;47.212;7.542;2023-04-25T12:15:13;0.60;;;0.60;;
4754;SDS011;2391;47.212;7.542;2023-04-25T12:17:50;1.37;;;0.60;;
4754;SDS011;2391;47.212;7.542;2023-04-25T12:22:48;0.70;;;0.53;;
4754;SDS011;2391;47.212;7.542;2023-04-25T12:25:33;1.50;;;0.50;;
4754;SDS011;2391;47.212;7.542;2023-04-25T12:28:13;2.00;;;0.60;;
4754;SDS011;2391;47.212;7.542;2023-04-25T12:31:06;1.10;;;0.60;;
4754;SDS011;2391;47.212;7.542;2023-04-25T12:33:23;1.60;;;0.70;;
4754;SDS011;2391;47.212;7.542;2023-04-25T12:35:52;2.40;;;0.73;;
4754;SDS011;2391;47.212;7.542;2023-04-25T12:38:22;0.50;;;0.50;;
4754;SDS011;2391;47.212;7.542;2023-04-25T12:40:49;1.80;;;0.63;;
4754;SDS011;2391;47.212;7.542;2023-04-25T12:43:14;0.70;;;0.70;;
4754;SDS011;2391;47.212;7.542;2023-04-25T12:45:40;0.80;;;0.80;;
4754;SDS011;2391;47.212;7.542;2023-04-25T12:48:06;3.63;;;0.70;;
4754;SDS011;2391;47.212;7.542;2023-04-25T12:50:32;0.63;;;0.63;;
4754;SDS011;2391;47.212;7.542;2023-04-25T12:52:57;0.70;;;0.70;;
4754;SDS011;2391;47.212;7.542;2023-04-25T12:55:23;1.00;;;0.70;;
4754;SDS011;2391;47.212;7.542;2023-04-25T12:57:49;0.80;;;0.77;;
4754;SDS011;2391;47.212;7.542;2023-04-25T13:00:15;2.10;;;0.70;;
4754;SDS011;2391;47.212;7.542;2023-04-25T13:02:42;2.00;;;0.80;;
4754;SDS011;2391;47.212;7.542;2023-04-25T13:05:08;1.90;;;0.67;;
4754;SDS011;2391;47.212;7.542;2023-04-25T13:07:34;3.30;;;0.70;;
4754;SDS011;2391;47.212;7.542;2023-04-25T13:10:00;1.00;;;0.77;;
4754;SDS011;2391;47.212;7.542;2023-04-25T13:12:27;1.20;;;0.87;;
4754;SDS011;2391;47.212;7.542;2023-04-25T13:14:53;0.60;;;0.60;;
4754;SDS011;2391;47.212;7.542;2023-04-25T13:17:19;0.77;;;0.60;;
4754;SDS011;2391;47.212;7.542;2023-04-25T13:19:44;1.47;;;0.50;;
4754;SDS011;2391;47.212;7.542;2023-04-25T13:22:10;0.63;;;0.63;;
4754;SDS011;2391;47.212;7.542;2023-04-25T13:24:36;1.63;;;0.60;;
4754;SDS011;2391;47.212;7.542;2023-04-25T13:27:02;0.70;;;0.60;;
4754;SDS011;2391;47.212;7.542;2023-04-25T13:29:28;0.80;;;0.67;;
4754;SDS011;2391;47.212;7.542;2023-04-25T13:31:54;0.60;;;0.60;;
4754;SDS011;2391;47.212;7.542;2023-04-25T13:34:20;2.20;;;0.70;;
4754;SDS011;2391;47.212;7.542;2023-04-25T13:36:46;0.70;;;0.50;;
4754;SDS011;2391;47.212;7.542;2023-04-25T13:39:11;2.50;;;0.53;;
4754;SDS011;2391;47.212;7.542;2023-04-25T13:41:37;0.70;;;0.67;;
4754;SDS011;2391;47.212;7.542;2023-04-25T13:44:03;4.20;;;0.70;;
4754;SDS011;2391;47.212;7.542;2023-04-25T13:46:29;1.00;;;0.60;;
4754;SDS011;2391;47.212;7.542;2023-04-25T13:48:54;1.37;;;0.60;;
4754;SDS011;2391;47.212;7.542;2023-04-25T13:51:20;0.60;;;0.60;;
4754;SDS011;2391;47.212;7.542;2023-04-25T13:53:46;1.53;;;0.80;;
4754;SDS011;2391;47.212;7.542;2023-04-25T13:56:12;1.60;;;0.70;;
4754;SDS011;2391;47.212;7.542;2023-04-25T13:58:37;1.33;;;0.63;;
4754;SDS011;2391;47.212;7.542;2023-04-25T14:01:03;1.23;;;0.60;;
4754;SDS011;2391;47.212;7.542;2023-04-25T14:03:32;1.03;;;0.60;;
4754;SDS011;2391;47.212;7.542;2023-04-25T14:05:58;0.60;;;0.60;;
4754;SDS011;2391;47.212;7.542;2023-04-25T14:08:24;0.97;;;0.63;;
4754;SDS011;2391;47.212;7.542;2023-04-25T14:10:49;1.30;;;0.87;;
4754;SDS011;2391;47.212;7.542;2023-04-25T14:13:15;0.80;;;0.60;;
4754;SDS011;2391;47.212;7.542;2023-04-25T14:15:41;0.80;;;0.73;;
4754;SDS011;2391;47.212;7.542;2023-04-25T14:18:06;1.13;;;0.70;;
4754;SDS011;2391;47.212;7.542;2023-04-25T14:20:32;1.37;;;0.90;;
4754;SDS011;2391;47.212;7.542;2023-04-25T14:22:58;2.50;;;0.63;;
4754;SDS011;2391;47.212;7.542;2023-04-25T14:25:24;0.57;;;0.57;;
4754;SDS011;2391;47.212;7.542;2023-04-25T14:27:50;0.70;;;0.70;;
4754;SDS011;2391;47.212;7.542;2023-04-25T14:30:17;1.27;;;0.80;;
4754;SDS011;2391;47.212;7.542;2023-04-25T14:32:43;1.00;;;0.70;;
4754;SDS011;2391;47.212;7.542;2023-04-25T14:35:10;0.60;;;0.60;;
4754;SDS011;2391;47.212;7.542;2023-04-25T14:37:36;0.83;;;0.83;;
4754;SDS011;2391;47.212;7.542;2023-04-25T14:40:02;2.80;;;0.80;;
4754;SDS011;2391;47.212;7.542;2023-04-25T14:42:30;0.70;;;0.70;;
4754;SDS011;2391;47.212;7.542;2023-04-25T14:44:55;0.70;;;0.70;;
4754;SDS011;2391;47.212;7.542;2023-04-25T14:47:21;1.60;;;0.70;;
4754;SDS011;2391;47.212;7.542;2023-04-25T14:49:47;0.80;;;0.70;;
4754;SDS011;2391;47.212;7.542;2023-04-25T14:52:14;1.30;;;0.80;;
4754;SDS011;2391;47.212;7.542;2023-04-25T14:54:41;1.13;;;1.03;;
4754;SDS011;2391;47.212;7.542;2023-04-25T14:57:06;1.07;;;0.90;;
4754;SDS011;2391;47.212;7.542;2023-04-25T14:59:33;0.97;;;0.80;;
4754;SDS011;2391;47.212;7.542;2023-04-25T15:01:59;0.90;;;0.90;;
4754;SDS011;2391;47.212;7.542;2023-04-25T15:04:24;2.63;;;0.77;;
4754;SDS011;2391;47.212;7.542;2023-04-25T15:06:50;1.87;;;0.80;;
4754;SDS011;2391;47.212;7.542;2023-04-25T15:09:16;0.80;;;0.80;;
4754;SDS011;2391;47.212;7.542;2023-04-25T15:11:42;0.67;;;0.67;;
4754;SDS011;2391;47.212;7.542;2023-04-25T15:14:07;0.70;;;0.70;;
4754;SDS011;2391;47.212;7.542;2023-04-25T15:16:33;0.53;;;0.50;;
4754;SDS011;2391;47.212;7.542;2023-04-25T15:18:59;0.77;;;0.77;;
4754;SDS011;2391;47.212;7.542;2023-04-25T15:21:25;0.70;;;0.70;;
4754;SDS011;2391;47.212;7.542;2023-04-25T15:23:51;1.17;;;0.50;;
4754;SDS011;2391;47.212;7.542;2023-04-25T15:26:17;1.03;;;0.70;;
4754;SDS011;2391;47.212;7.542;2023-04-25T15:28:43;2.37;;;0.67;;
4754;SDS011;2391;47.212;7.542;2023-04-25T15:31:09;0.60;;;0.60;;